createdAt,value
2019-05-06T00:02:19.766Z,10.60
2019-05-06T00:04:51.425Z,19.82
2019-05-06T00:07:24.279Z,19.43
2019-05-06T00:09:56.390Z,10.50
2019-05-06T00:12:28.524Z,15.93
2019-05-06T00:15:00.496Z,14.30
2019-05-06T00:17:34.933Z,12.47
2019-05-06T00:20:06.055Z,13.80
2019-05-06T00:22:39.484Z,21.00
2019-05-06T00:25:16.894Z,11.30
2019-05-06T00:28:06.281Z,17.50
2019-05-06T00:30:38.292Z,15.33
2019-05-06T00:33:10.160Z,8.30
2019-05-06T00:35:42.096Z,11.95
2019-05-06T00:38:14.168Z,10.90
2019-05-06T00:40:46.943Z,16.27
2019-05-06T00:43:18.937Z,14.73
2019-05-06T00:45:50.571Z,13.07
2019-05-06T00:48:24.370Z,11.37
2019-05-06T00:50:56.129Z,12.40
2019-05-06T00:53:29.434Z,15.37
2019-05-06T00:56:04.440Z,19.20
2019-05-06T00:58:36.314Z,23.23
2019-05-06T01:01:08.141Z,11.43
2019-05-06T01:03:39.854Z,11.40
2019-05-06T01:06:11.525Z,12.07
2019-05-06T01:08:44.114Z,13.10
2019-05-06T01:11:16.753Z,12.70
2019-05-06T01:14:00.332Z,17.97
2019-05-06T01:16:31.727Z,16.42
2019-05-06T01:19:04.727Z,13.10
2019-05-06T01:21:37.052Z,15.77
2019-05-06T01:24:08.698Z,10.72
2019-05-06T01:26:40.567Z,9.93
2019-05-06T01:29:14.382Z,9.27
2019-05-06T01:31:46.460Z,12.90
2019-05-06T01:34:18.018Z,10.80
2019-05-06T01:36:49.406Z,13.28
2019-05-06T01:39:58.406Z,11.80
2019-05-06T01:42:34.577Z,15.33
2019-05-06T01:45:07.697Z,13.30
2019-05-06T01:47:40.065Z,12.87
2019-05-06T01:50:11.417Z,15.10
2019-05-06T01:52:44.285Z,23.73
2019-05-06T01:55:16.015Z,14.30
2019-05-06T01:57:48.598Z,18.25
2019-05-06T02:00:19.681Z,14.87
2019-05-06T02:02:51.580Z,17.97
2019-05-06T02:05:24.269Z,21.43
2019-05-06T02:07:56.470Z,22.13
2019-05-06T02:10:28.306Z,22.03
2019-05-06T02:12:59.841Z,10.73
2019-05-06T02:15:31.387Z,15.33
2019-05-06T02:18:04.111Z,15.27
2019-05-06T02:20:38.903Z,13.70
2019-05-06T02:23:14.903Z,19.35
2019-05-06T02:25:49.376Z,13.60
2019-05-06T02:28:21.057Z,14.83
2019-05-06T02:31:17.471Z,11.73
2019-05-06T02:34:17.417Z,16.33
2019-05-06T02:36:57.233Z,12.78
2019-05-06T02:39:29.211Z,16.10
2019-05-06T02:42:03.779Z,16.00
2019-05-06T02:44:34.140Z,14.37
2019-05-06T02:47:34.301Z,14.68
2019-05-06T02:50:09.504Z,11.77
2019-05-06T02:52:43.797Z,13.10
2019-05-06T02:55:14.145Z,14.47
2019-05-06T02:57:46.014Z,13.72
2019-05-06T03:00:19.488Z,12.33
2019-05-06T03:02:54.138Z,14.63
2019-05-06T03:05:25.460Z,13.90
2019-05-06T03:07:57.868Z,17.03
2019-05-06T03:10:29.545Z,12.67
2019-05-06T03:13:03.046Z,14.43
2019-05-06T03:15:35.996Z,15.30
2019-05-06T03:18:07.859Z,12.57
2019-05-06T03:20:49.328Z,13.40
2019-05-06T03:23:23.620Z,14.67
2019-05-06T03:25:56.226Z,11.63
2019-05-06T03:28:27.989Z,9.87
2019-05-06T03:30:59.569Z,18.37
2019-05-06T03:33:50.701Z,15.47
2019-05-06T03:36:15.550Z,15.60
2019-05-06T03:38:38.041Z,16.73
2019-05-06T03:41:13.647Z,13.93
2019-05-06T03:43:44.197Z,14.33
2019-05-06T03:46:53.982Z,11.90
2019-05-06T03:49:28.902Z,12.25
2019-05-06T03:52:02.733Z,12.47
2019-05-06T03:54:34.462Z,12.40
2019-05-06T03:57:06.320Z,17.30
2019-05-06T03:59:39.759Z,15.47
2019-05-06T04:02:13.238Z,10.23
2019-05-06T04:04:45.311Z,11.65
2019-05-06T04:07:17.263Z,15.20
2019-05-06T04:09:49.142Z,10.07
2019-05-06T04:12:23.331Z,11.23
2019-05-06T04:14:54.403Z,12.87
2019-05-06T04:17:37.718Z,13.30
2019-05-06T04:20:18.886Z,16.63
2019-05-06T04:22:56.918Z,16.93
2019-05-06T04:25:47.546Z,8.67
2019-05-06T04:28:23.808Z,16.53
2019-05-06T04:30:55.399Z,10.83
2019-05-06T04:33:28.305Z,16.73
2019-05-06T04:36:03.523Z,9.83
2019-05-06T04:38:34.276Z,12.00
2019-05-06T04:41:06.051Z,17.53
2019-05-06T04:43:38.624Z,10.03
2019-05-06T04:46:13.596Z,13.03
2019-05-06T04:48:43.966Z,13.38
2019-05-06T04:51:16.185Z,14.07
2019-05-06T04:53:48.238Z,23.20
2019-05-06T04:56:19.800Z,14.03
2019-05-06T04:58:53.892Z,15.15
2019-05-06T05:01:25.561Z,13.07
2019-05-06T05:03:57.087Z,13.03
2019-05-06T05:06:29.061Z,19.63
2019-05-06T05:09:02.928Z,16.83
2019-05-06T05:11:49.138Z,13.80
2019-05-06T05:14:32.792Z,13.70
2019-05-06T05:17:14.732Z,18.80
2019-05-06T05:19:46.643Z,19.33
2019-05-06T05:22:18.404Z,15.70
2019-05-06T05:24:52.189Z,11.87
2019-05-06T05:27:23.615Z,19.10
2019-05-06T05:29:55.809Z,19.00
2019-05-06T05:32:28.564Z,13.97
2019-05-06T05:35:02.086Z,11.33
2019-05-06T05:37:33.541Z,20.87
2019-05-06T05:40:05.400Z,18.73
2019-05-06T05:42:52.724Z,16.67
2019-05-06T05:45:24.777Z,18.55
2019-05-06T05:47:57.812Z,19.10
2019-05-06T05:50:35.980Z,18.03
2019-05-06T05:53:07.324Z,11.47
2019-05-06T05:55:39.633Z,24.43
2019-05-06T05:58:12.924Z,22.13
2019-05-06T06:00:44.435Z,17.95
2019-05-06T06:03:16.098Z,11.37
2019-05-06T06:05:48.073Z,16.80
2019-05-06T06:08:22.134Z,17.93
2019-05-06T06:11:00.293Z,14.53
2019-05-06T06:13:32.062Z,17.73
2019-05-06T06:16:32.835Z,13.23
2019-05-06T06:19:17.734Z,14.70
2019-05-06T06:21:57.077Z,13.80
2019-05-06T06:24:32.227Z,24.27
2019-05-06T06:27:04.470Z,12.70
2019-05-06T06:29:36.140Z,18.77
2019-05-06T06:32:20.181Z,20.17
2019-05-06T06:35:19.095Z,19.33
2019-05-06T06:38:05.773Z,16.47
2019-05-06T06:40:37.455Z,15.57
2019-05-06T06:43:14.879Z,12.15
2019-05-06T06:45:46.886Z,16.60
2019-05-06T06:48:18.565Z,14.03
2019-05-06T06:50:51.755Z,17.37
2019-05-06T06:53:23.810Z,12.80
2019-05-06T06:56:14.707Z,12.00
2019-05-06T06:59:05.627Z,12.93
2019-05-06T07:01:43.010Z,7.97
2019-05-06T07:04:19.882Z,14.47
2019-05-06T07:06:54.109Z,9.63
2019-05-06T07:09:25.951Z,11.70
2019-05-06T07:11:57.310Z,14.43
2019-05-06T07:14:28.753Z,8.50
2019-05-06T07:17:02.453Z,14.40
2019-05-06T07:19:42.145Z,11.53
2019-05-06T07:22:13.017Z,8.20
2019-05-06T07:24:44.808Z,15.00
2019-05-06T07:27:22.681Z,10.10
2019-05-06T07:29:53.631Z,12.97
2019-05-06T07:32:25.290Z,8.63
2019-05-06T07:34:57.150Z,13.50
2019-05-06T07:37:29.559Z,19.23
2019-05-06T07:40:03.078Z,13.73
2019-05-06T07:42:46.083Z,12.23
2019-05-06T07:45:32.720Z,8.68
2019-05-06T07:48:09.793Z,13.27
2019-05-06T07:50:42.588Z,11.33
2019-05-06T07:53:14.660Z,17.60
2019-05-06T07:55:46.351Z,18.07
2019-05-06T07:58:18.054Z,12.00
2019-05-06T08:00:49.648Z,13.38
2019-05-06T08:03:22.313Z,13.27
2019-05-06T08:05:58.377Z,12.78
2019-05-06T08:08:26.854Z,14.03
2019-05-06T08:10:58.817Z,6.67
2019-05-06T08:13:32.241Z,11.20
2019-05-06T08:16:04.771Z,12.90
2019-05-06T08:18:36.544Z,12.30
2019-05-06T08:21:16.427Z,11.10
2019-05-06T08:23:52.124Z,16.83
2019-05-06T08:26:23.224Z,9.73
2019-05-06T08:28:54.728Z,10.30
2019-05-06T08:31:26.007Z,8.13
2019-05-06T08:33:58.070Z,11.03
2019-05-06T08:36:47.740Z,14.17
2019-05-06T08:39:19.415Z,10.87
2019-05-06T08:41:52.881Z,10.83
2019-05-06T08:44:24.985Z,12.47
2019-05-06T08:46:56.342Z,8.70
2019-05-06T08:49:29.290Z,12.47
2019-05-06T08:52:07.716Z,9.23
2019-05-06T08:54:43.654Z,7.03
2019-05-06T08:57:15.925Z,10.17
2019-05-06T08:59:47.410Z,13.95
2019-05-06T09:02:22.744Z,12.43
2019-05-06T09:04:54.696Z,9.53
2019-05-06T09:07:26.553Z,11.48
2019-05-06T09:09:58.905Z,11.03
2019-05-06T09:12:30.286Z,9.57
2019-05-06T09:15:03.529Z,9.53
2019-05-06T09:17:35.734Z,6.90
2019-05-06T09:20:07.155Z,6.27
2019-05-06T09:22:39.060Z,7.83
2019-05-06T09:25:12.719Z,5.77
2019-05-06T09:27:59.142Z,9.47
2019-05-06T09:30:43.263Z,4.97
2019-05-06T09:33:17.859Z,4.63
2019-05-06T09:35:49.649Z,11.17
2019-05-06T09:38:22.839Z,6.50
2019-05-06T09:40:55.103Z,5.17
2019-05-06T09:43:26.903Z,4.97
2019-05-06T09:45:59.041Z,6.03
2019-05-06T09:48:49.612Z,3.60
2019-05-06T09:51:22.117Z,8.48
2019-05-06T09:54:23.615Z,5.33
2019-05-06T09:57:08.222Z,6.37
2019-05-06T09:59:39.742Z,4.00
2019-05-06T10:02:12.545Z,6.40
2019-05-06T10:04:44.405Z,7.43
2019-05-06T10:07:15.975Z,10.60
2019-05-06T10:09:47.620Z,3.80
2019-05-06T10:12:19.371Z,7.30
2019-05-06T10:14:53.170Z,6.92
2019-05-06T10:17:24.652Z,9.65
2019-05-06T10:19:57.333Z,9.30
2019-05-06T10:22:29.173Z,4.47
2019-05-06T10:25:03.606Z,4.20
2019-05-06T10:27:38.287Z,6.27
2019-05-06T10:30:12.520Z,4.20
2019-05-06T10:32:53.422Z,3.73
2019-05-06T10:35:29.176Z,8.97
2019-05-06T10:38:05.004Z,3.72
2019-05-06T10:40:56.214Z,8.77
2019-05-06T10:43:22.028Z,4.30
2019-05-06T10:45:54.303Z,5.40
2019-05-06T10:48:25.920Z,9.23
2019-05-06T10:51:03.580Z,6.13
2019-05-06T10:53:36.777Z,5.20
2019-05-06T10:56:31.987Z,7.77
2019-05-06T10:59:03.261Z,4.83
2019-05-06T11:01:42.532Z,2.00
2019-05-06T11:04:12.963Z,3.57
2019-05-06T11:06:44.701Z,9.85
2019-05-06T11:09:16.375Z,7.73
2019-05-06T11:11:48.577Z,4.83
2019-05-06T11:14:22.736Z,2.90
2019-05-06T11:16:54.059Z,6.37
2019-05-06T11:19:25.021Z,6.35
2019-05-06T11:21:56.296Z,8.80
2019-05-06T11:24:27.927Z,3.72
2019-05-06T11:26:59.799Z,4.00
2019-05-06T11:29:33.910Z,5.23
2019-05-06T11:32:17.965Z,3.57
2019-05-06T11:35:12.414Z,7.50
2019-05-06T11:38:03.085Z,9.97
2019-05-06T11:40:35.140Z,6.30
2019-05-06T11:43:07.237Z,2.90
2019-05-06T11:45:39.455Z,2.93
2019-05-06T11:48:14.356Z,3.97
2019-05-06T11:50:46.989Z,3.90
2019-05-06T11:53:18.875Z,4.85
2019-05-06T11:55:54.340Z,3.10
2019-05-06T11:58:43.383Z,2.77
2019-05-06T12:01:22.079Z,6.33
2019-05-06T12:03:53.292Z,5.12
2019-05-06T12:06:24.957Z,5.80
2019-05-06T12:08:57.086Z,4.00
2019-05-06T12:11:29.095Z,2.37
2019-05-06T12:14:02.392Z,7.53
2019-05-06T12:16:33.868Z,4.70
2019-05-06T12:19:05.713Z,2.83
2019-05-06T12:21:37.008Z,7.77
2019-05-06T12:24:08.560Z,4.93
2019-05-06T12:26:42.705Z,8.23
2019-05-06T12:29:13.986Z,2.43
2019-05-06T12:31:49.613Z,4.80
2019-05-06T12:34:20.875Z,2.87
2019-05-06T12:36:55.577Z,7.20
2019-05-06T12:39:29.674Z,2.40
2019-05-06T12:42:25.900Z,9.75
2019-05-06T12:45:16.416Z,5.75
2019-05-06T12:47:55.322Z,4.10
2019-05-06T12:50:27.283Z,9.08
2019-05-06T12:52:58.779Z,4.62
2019-05-06T12:55:30.346Z,2.50
2019-05-06T12:58:02.955Z,10.40
2019-05-06T13:00:35.617Z,6.70
2019-05-06T13:03:06.883Z,3.53
2019-05-06T13:05:39.282Z,5.20
2019-05-06T13:08:18.784Z,3.30
2019-05-06T13:10:45.443Z,5.53
2019-05-06T13:13:17.703Z,3.33
2019-05-06T13:15:52.603Z,3.97
2019-05-06T13:18:23.384Z,5.83
2019-05-06T13:20:55.581Z,5.92
2019-05-06T13:23:52.075Z,4.47
2019-05-06T13:26:24.265Z,3.60
2019-05-06T13:28:59.381Z,5.00
2019-05-06T13:31:32.656Z,3.13
2019-05-06T13:34:06.351Z,2.93
2019-05-06T13:36:37.620Z,5.93
2019-05-06T13:39:14.384Z,2.27
2019-05-06T13:41:42.854Z,5.60
2019-05-06T13:44:18.809Z,4.40
2019-05-06T13:46:53.618Z,8.07
2019-05-06T13:49:52.222Z,2.35
2019-05-06T13:52:30.351Z,4.73
2019-05-06T13:55:02.734Z,5.20
2019-05-06T13:57:34.185Z,4.92
2019-05-06T14:00:06.131Z,3.40
2019-05-06T14:02:49.790Z,3.03
2019-05-06T14:05:22.199Z,6.73
2019-05-06T14:07:53.740Z,2.35
2019-05-06T14:10:25.345Z,2.57
2019-05-06T14:12:57.373Z,3.92
2019-05-06T14:15:28.641Z,5.80
2019-05-06T14:18:02.420Z,5.90
2019-05-06T14:20:33.700Z,4.40
2019-05-06T14:23:05.675Z,7.80
2019-05-06T14:25:49.919Z,4.10
2019-05-06T14:28:32.539Z,4.33
2019-05-06T14:31:09.006Z,3.97
2019-05-06T14:33:42.721Z,3.73
2019-05-06T14:36:13.546Z,8.03
2019-05-06T14:38:44.953Z,6.00
2019-05-06T14:41:18.968Z,4.33
2019-05-06T14:43:50.348Z,6.20
2019-05-06T14:46:22.797Z,6.30
2019-05-06T14:48:54.502Z,5.13
2019-05-06T14:51:26.150Z,8.70
2019-05-06T14:53:58.201Z,5.40
2019-05-06T14:56:42.735Z,4.20
2019-05-06T14:59:14.507Z,7.10
2019-05-06T15:01:46.105Z,6.73
2019-05-06T15:04:17.324Z,4.03
2019-05-06T15:06:50.032Z,6.53
2019-05-06T15:09:22.622Z,4.43
2019-05-06T15:11:54.115Z,5.78
2019-05-06T15:14:25.777Z,6.73
2019-05-06T15:16:57.571Z,9.20
2019-05-06T15:19:29.419Z,5.13
2019-05-06T15:22:02.260Z,6.33
2019-05-06T15:24:34.554Z,7.22
2019-05-06T15:27:06.120Z,8.70
2019-05-06T15:29:37.887Z,6.75
2019-05-06T15:32:29.497Z,6.57
2019-05-06T15:35:13.344Z,9.80
2019-05-06T15:37:53.855Z,10.47
2019-05-06T15:40:32.972Z,4.80
2019-05-06T15:42:58.517Z,3.30
2019-05-06T15:45:32.372Z,5.50
2019-05-06T15:48:03.372Z,8.30
2019-05-06T15:50:34.378Z,8.70
2019-05-06T15:53:06.159Z,5.53
2019-05-06T15:55:38.125Z,7.65
2019-05-06T15:58:09.426Z,5.85
2019-05-06T16:00:42.441Z,6.57
2019-05-06T16:03:14.146Z,6.53
2019-05-06T16:05:46.310Z,5.87
2019-05-06T16:08:18.142Z,5.93
2019-05-06T16:10:52.384Z,6.43
2019-05-06T16:13:22.752Z,8.00
2019-05-06T16:15:53.753Z,6.43
2019-05-06T16:18:25.723Z,6.93
2019-05-06T16:20:57.632Z,11.87
2019-05-06T16:23:35.557Z,5.62
2019-05-06T16:26:06.849Z,3.42
2019-05-06T16:28:38.760Z,6.37
2019-05-06T16:31:10.300Z,6.97
2019-05-06T16:33:43.097Z,8.30
2019-05-06T16:36:15.058Z,4.03
2019-05-06T16:38:47.291Z,5.83
2019-05-06T16:41:19.184Z,4.20
2019-05-06T16:43:52.377Z,4.28
2019-05-06T16:46:24.066Z,5.90
2019-05-06T16:48:55.991Z,5.40
2019-05-06T16:51:27.949Z,7.47
2019-05-06T16:53:59.486Z,9.80
2019-05-06T16:56:44.606Z,7.83
2019-05-06T16:59:15.088Z,7.87
2019-05-06T17:01:46.860Z,7.63
2019-05-06T17:04:41.886Z,7.70
2019-05-06T17:07:13.708Z,6.13
2019-05-06T17:09:45.057Z,3.53
2019-05-06T17:12:16.500Z,5.63
2019-05-06T17:14:47.955Z,3.93
2019-05-06T17:17:19.599Z,2.80
2019-05-06T17:19:52.874Z,5.53
2019-05-06T17:22:25.132Z,7.13
2019-05-06T17:24:56.437Z,9.13
2019-05-06T17:27:28.181Z,7.73
2019-05-06T17:30:22.596Z,7.72
2019-05-06T17:32:58.560Z,8.20
2019-05-06T17:35:32.777Z,14.77
2019-05-06T17:38:13.733Z,7.55
2019-05-06T17:40:46.056Z,6.63
2019-05-06T17:43:17.957Z,8.37
2019-05-06T17:46:02.541Z,7.70
2019-05-06T17:49:02.524Z,4.07
2019-05-06T17:51:37.383Z,8.90
2019-05-06T17:54:09.183Z,3.27
2019-05-06T17:56:41.970Z,3.73
2019-05-06T17:59:13.652Z,5.47
2019-05-06T18:01:48.212Z,3.50
2019-05-06T18:04:20.033Z,4.33
2019-05-06T18:06:52.638Z,6.20
2019-05-06T18:09:24.692Z,4.33
2019-05-06T18:11:59.458Z,6.47
2019-05-06T18:14:32.625Z,5.47
2019-05-06T18:17:03.982Z,18.07
2019-05-06T18:19:35.746Z,10.97
2019-05-06T18:22:07.809Z,6.30
2019-05-06T18:24:39.978Z,4.83
2019-05-06T18:27:13.151Z,4.53
2019-05-06T18:29:44.809Z,7.50
2019-05-06T18:32:16.498Z,5.60
2019-05-06T18:34:48.095Z,7.10
2019-05-06T18:37:19.453Z,7.60
2019-05-06T18:39:53.089Z,11.90
2019-05-06T18:42:25.301Z,6.67
2019-05-06T18:44:56.880Z,7.23
2019-05-06T18:47:28.919Z,9.53
2019-05-06T18:50:02.317Z,8.40
2019-05-06T18:52:35.071Z,5.63
2019-05-06T18:55:06.992Z,6.90
2019-05-06T18:57:38.781Z,5.83
2019-05-06T19:00:10.600Z,8.35
2019-05-06T19:02:42.401Z,9.23
2019-05-06T19:05:26.994Z,7.57
2019-05-06T19:07:57.921Z,7.97
2019-05-06T19:10:33.200Z,6.67
2019-05-06T19:13:05.191Z,5.23
2019-05-06T19:15:37.323Z,5.60
2019-05-06T19:18:09.348Z,9.28
2019-05-06T19:20:42.450Z,7.55
2019-05-06T19:23:14.899Z,7.10
2019-05-06T19:25:47.018Z,5.23
2019-05-06T19:28:18.719Z,7.00
2019-05-06T19:30:51.638Z,10.77
2019-05-06T19:33:24.128Z,8.47
2019-05-06T19:35:55.766Z,11.30
2019-05-06T19:38:28.036Z,10.60
2019-05-06T19:41:02.030Z,14.73
2019-05-06T19:43:33.816Z,12.05
2019-05-06T19:46:05.756Z,15.07
2019-05-06T19:48:37.735Z,15.28
2019-05-06T19:51:09.374Z,16.10
2019-05-06T19:53:42.881Z,13.62
2019-05-06T19:56:15.482Z,15.97
2019-05-06T19:58:46.840Z,13.77
2019-05-06T20:01:18.617Z,16.43
2019-05-06T20:03:52.659Z,16.73
2019-05-06T20:06:43.802Z,19.43
2019-05-06T20:09:24.956Z,18.97
2019-05-06T20:11:59.931Z,18.67
2019-05-06T20:14:31.838Z,18.43
2019-05-06T20:17:03.799Z,17.90
2019-05-06T20:19:35.624Z,17.57
2019-05-06T20:22:07.794Z,16.53
2019-05-06T20:24:39.511Z,11.77
2019-05-06T20:27:13.305Z,7.53
2019-05-06T20:29:45.077Z,9.30
2019-05-06T20:32:16.663Z,8.40
2019-05-06T20:34:50.117Z,6.33
2019-05-06T20:37:22.355Z,7.03
2019-05-06T20:39:54.448Z,6.37
2019-05-06T20:42:26.678Z,5.70
2019-05-06T20:44:58.447Z,5.47
2019-05-06T20:47:32.025Z,4.90
2019-05-06T20:50:05.396Z,6.05
2019-05-06T20:52:37.519Z,4.33
2019-05-06T20:55:15.942Z,6.57
2019-05-06T20:57:43.937Z,5.63
2019-05-06T21:00:17.228Z,5.43
2019-05-06T21:02:49.578Z,6.63
2019-05-06T21:05:22.767Z,5.00
2019-05-06T21:07:54.844Z,6.07
2019-05-06T21:10:27.304Z,5.80
2019-05-06T21:12:59.204Z,5.28
2019-05-06T21:15:32.544Z,6.40
2019-05-06T21:18:04.595Z,7.58
2019-05-06T21:20:36.673Z,4.90
2019-05-06T21:23:09.064Z,5.63
2019-05-06T21:25:42.928Z,6.40
2019-05-06T21:28:13.610Z,6.17
2019-05-06T21:30:45.124Z,5.67
2019-05-06T21:33:17.615Z,6.43
2019-05-06T21:35:52.083Z,6.87
2019-05-06T21:38:23.277Z,7.67
2019-05-06T21:40:55.351Z,5.33
2019-05-06T21:43:27.960Z,5.33
2019-05-06T21:45:59.771Z,5.87
2019-05-06T21:48:33.702Z,6.90
2019-05-06T21:51:05.673Z,8.80
2019-05-06T21:53:37.340Z,8.70
2019-05-06T21:56:09.390Z,9.95
2019-05-06T21:58:42.827Z,8.17
2019-05-06T22:01:14.939Z,6.33
2019-05-06T22:03:46.753Z,6.57
2019-05-06T22:06:19.146Z,5.93
2019-05-06T22:08:51.887Z,9.17
2019-05-06T22:11:24.503Z,8.53
2019-05-06T22:14:01.412Z,8.40
2019-05-06T22:16:32.331Z,7.73
2019-05-06T22:19:03.646Z,9.10
2019-05-06T22:21:36.163Z,7.77
2019-05-06T22:24:07.637Z,8.88
2019-05-06T22:26:39.296Z,10.23
2019-05-06T22:29:12.249Z,9.20
2019-05-06T22:31:44.447Z,9.17
2019-05-06T22:34:16.200Z,7.40
2019-05-06T22:36:47.830Z,8.43
2019-05-06T22:39:19.372Z,11.67
2019-05-06T22:41:52.007Z,9.73
2019-05-06T22:44:23.437Z,9.03
2019-05-06T22:46:55.374Z,10.70
2019-05-06T22:49:27.339Z,10.67
2019-05-06T22:51:59.560Z,11.60
2019-05-06T22:54:32.017Z,11.20
2019-05-06T22:57:05.045Z,14.40
2019-05-06T22:59:36.907Z,11.93
2019-05-06T23:02:32.833Z,11.38
2019-05-06T23:05:04.646Z,12.93
2019-05-06T23:07:37.594Z,12.73
2019-05-06T23:10:10.282Z,13.17
2019-05-06T23:12:43.382Z,12.05
2019-05-06T23:15:14.933Z,12.20
2019-05-06T23:17:46.765Z,12.80
2019-05-06T23:20:18.181Z,13.90
2019-05-06T23:22:49.779Z,13.83
2019-05-06T23:25:23.488Z,12.53
2019-05-06T23:27:55.606Z,15.33
2019-05-06T23:30:26.871Z,13.43
2019-05-06T23:32:58.648Z,16.70
2019-05-06T23:35:30.640Z,16.83
2019-05-06T23:38:38.012Z,16.47
2019-05-06T23:41:45.707Z,17.57
2019-05-06T23:44:54.717Z,16.63
2019-05-06T23:48:02.622Z,22.67
2019-05-06T23:51:10.141Z,21.37
2019-05-06T23:54:18.969Z,20.27
2019-05-06T23:56:52.114Z,20.47
2019-05-06T23:59:23.725Z,18.27
